createdAt,value
2023-05-19T00:00:48.975Z,103030.63
2023-05-19T00:03:21.644Z,103026.94
2023-05-19T00:05:48.604Z,103026.72
2023-05-19T00:08:17.005Z,103023.56
2023-05-19T00:10:43.824Z,103013.31
2023-05-19T00:13:10.413Z,103021.56
2023-05-19T00:15:37.242Z,103016.09
2023-05-19T00:18:03.788Z,103016.69
2023-05-19T00:20:30.496Z,103011.13
2023-05-19T00:22:57.082Z,103009.28
2023-05-19T00:25:23.516Z,103008.91
2023-05-19T00:27:49.992Z,103014.97
2023-05-19T00:30:16.528Z,103013.34
2023-05-19T00:32:43.167Z,103013.97
2023-05-19T00:35:09.786Z,103014.72
2023-05-19T00:37:36.256Z,103013.44
2023-05-19T00:40:02.754Z,103009.88
2023-05-19T00:42:29.246Z,103005.31
2023-05-19T00:44:55.850Z,103010.16
2023-05-19T00:47:22.369Z,103006.56
2023-05-19T00:49:48.850Z,103010.81
2023-05-19T00:52:15.336Z,103004.72
2023-05-19T00:54:41.884Z,103003.94
2023-05-19T00:57:08.384Z,103001.88
2023-05-19T00:59:34.840Z,103008.81
2023-05-19T01:02:02.780Z,103006.25
2023-05-19T01:04:29.709Z,103004.03
2023-05-19T01:06:56.495Z,103004.41
2023-05-19T01:09:23.570Z,103003.97
2023-05-19T01:11:50.564Z,103009.31
2023-05-19T01:14:17.287Z,103007.09
2023-05-19T01:16:48.755Z,102998.25
2023-05-19T01:19:36.904Z,103000.28
2023-05-19T01:22:22.941Z,102992.84
2023-05-19T01:25:04.450Z,102993.25
2023-05-19T01:27:49.117Z,102993.69
2023-05-19T01:30:29.306Z,102993.69
2023-05-19T01:33:01.586Z,102986.41
2023-05-19T01:35:28.319Z,102985.56
2023-05-19T01:37:57.593Z,102984.56
2023-05-19T01:40:25.565Z,102984.78
2023-05-19T01:42:58.814Z,102980.97
2023-05-19T01:45:26.863Z,102982.78
2023-05-19T01:47:56.428Z,102979.34
2023-05-19T01:50:23.247Z,102979.19
2023-05-19T01:52:49.930Z,102976.97
2023-05-19T01:55:16.540Z,102970.28
2023-05-19T01:58:20.725Z,102964.56
2023-05-19T02:00:54.040Z,102971.03
2023-05-19T02:04:00.603Z,102966.56
2023-05-19T02:06:35.070Z,102974.94
2023-05-19T02:09:09.435Z,102976.19
2023-05-19T02:11:53.463Z,102976.56
2023-05-19T02:14:22.426Z,102965.72
2023-05-19T02:16:49.380Z,102973.38
2023-05-19T02:19:26.932Z,102975.59
2023-05-19T02:21:53.465Z,102973.38
2023-05-19T02:24:20.211Z,102973.81
2023-05-19T02:26:46.650Z,102969.34
2023-05-19T02:29:13.140Z,102957.81
2023-05-19T02:31:39.680Z,102968.59
2023-05-19T02:34:06.158Z,102964.28
2023-05-19T02:36:34.920Z,102965.31
2023-05-19T02:39:04.487Z,102963.50
2023-05-19T02:41:31.526Z,102956.22
2023-05-19T02:43:58.018Z,102941.28
2023-05-19T02:46:24.539Z,102946.31
2023-05-19T02:48:52.166Z,102946.53
2023-05-19T02:51:18.588Z,102953.81
2023-05-19T02:53:45.025Z,102949.97
2023-05-19T02:56:11.527Z,102945.28
2023-05-19T02:58:38.126Z,102946.91
2023-05-19T03:01:04.544Z,102939.59
2023-05-19T03:03:31.066Z,102942.59
2023-05-19T03:05:57.744Z,102947.66
2023-05-19T03:08:24.163Z,102949.50
2023-05-19T03:10:50.675Z,102946.88
2023-05-19T03:13:17.131Z,102943.19
2023-05-19T03:15:43.593Z,102939.34
2023-05-19T03:18:10.087Z,102936.91
2023-05-19T03:20:36.643Z,102938.53
2023-05-19T03:23:03.169Z,102941.97
2023-05-19T03:25:30.024Z,102936.34
2023-05-19T03:27:56.475Z,102939.19
2023-05-19T03:30:22.906Z,102942.88
2023-05-19T03:32:49.415Z,102931.34
2023-05-19T03:35:15.917Z,102936.19
2023-05-19T03:37:42.333Z,102930.50
2023-05-19T03:40:09.233Z,102931.88
2023-05-19T03:42:35.707Z,102924.78
2023-05-19T03:45:03.396Z,102930.50
2023-05-19T03:47:31.650Z,102934.34
2023-05-19T03:49:58.134Z,102931.53
2023-05-19T03:52:24.588Z,102929.94
2023-05-19T03:54:51.285Z,102924.06
2023-05-19T03:57:17.703Z,102934.59
2023-05-19T03:59:44.171Z,102923.69
2023-05-19T04:02:10.669Z,102928.00
2023-05-19T04:04:40.010Z,102924.53
2023-05-19T04:07:07.174Z,102928.84
2023-05-19T04:09:35.261Z,102931.25
2023-05-19T04:12:05.479Z,102931.84
2023-05-19T04:14:31.953Z,102930.25
2023-05-19T04:16:58.438Z,102928.22
2023-05-19T04:19:24.982Z,102938.16
2023-05-19T04:21:52.061Z,102924.22
2023-05-19T04:24:18.511Z,102939.56
2023-05-19T04:26:47.060Z,102935.78
2023-05-19T04:29:13.864Z,102939.56
2023-05-19T04:31:41.095Z,102933.09
2023-05-19T04:34:10.512Z,102933.09
2023-05-19T04:36:37.796Z,102934.06
2023-05-19T04:39:07.820Z,102929.22
2023-05-19T04:41:34.726Z,102929.63
2023-05-19T04:44:01.158Z,102934.53
2023-05-19T04:46:29.986Z,102932.09
2023-05-19T04:48:57.160Z,102937.69
2023-05-19T04:51:29.221Z,102936.69
2023-05-19T04:53:57.547Z,102934.44
2023-05-19T04:56:24.158Z,102939.28
2023-05-19T04:58:50.736Z,102938.03
2023-05-19T05:01:17.212Z,102941.69
2023-05-19T05:03:44.443Z,102949.97
2023-05-19T05:06:11.680Z,102939.59
2023-05-19T05:08:40.372Z,102938.81
2023-05-19T05:11:07.075Z,102953.56
2023-05-19T05:13:34.024Z,102946.88
2023-05-19T05:16:00.666Z,102953.72
2023-05-19T05:18:27.469Z,102945.81
2023-05-19T05:20:54.484Z,102946.88
2023-05-19T05:23:21.260Z,102955.72
2023-05-19T05:25:47.986Z,102953.28
2023-05-19T05:28:14.557Z,102956.34
2023-05-19T05:30:41.468Z,102965.44
2023-05-19T05:33:09.578Z,102954.91
2023-05-19T05:35:36.190Z,102956.09
2023-05-19T05:38:02.878Z,102957.28
2023-05-19T05:40:29.483Z,102957.44
2023-05-19T05:42:56.733Z,102957.41
2023-05-19T05:45:23.478Z,102958.81
2023-05-19T05:47:50.341Z,102961.00
2023-05-19T05:50:17.545Z,102953.69
2023-05-19T05:52:47.883Z,102957.06
2023-05-19T05:55:15.342Z,102958.41
2023-05-19T05:57:41.876Z,102952.88
2023-05-19T06:00:18.112Z,102956.66
2023-05-19T06:02:50.626Z,102959.81
2023-05-19T06:05:17.475Z,102963.53
2023-05-19T06:07:43.926Z,102953.13
2023-05-19T06:10:10.363Z,102947.28
2023-05-19T06:12:40.544Z,102958.03
2023-05-19T06:15:08.012Z,102953.13
2023-05-19T06:17:35.850Z,102961.31
2023-05-19T06:20:02.718Z,102967.56
2023-05-19T06:22:29.147Z,102967.91
2023-05-19T06:24:55.856Z,102958.09
2023-05-19T06:27:22.359Z,102955.56
2023-05-19T06:29:48.790Z,102955.25
2023-05-19T06:32:15.284Z,102963.44
2023-05-19T06:34:41.709Z,102952.81
2023-05-19T06:37:08.165Z,102949.84
2023-05-19T06:39:34.663Z,102942.28
2023-05-19T06:42:01.183Z,102954.66
2023-05-19T06:44:27.644Z,102951.03
2023-05-19T06:46:54.476Z,102955.19
2023-05-19T06:49:20.996Z,102948.75
2023-05-19T06:51:47.803Z,102946.47
2023-05-19T06:54:16.158Z,102947.50
2023-05-19T06:56:42.887Z,102949.34
2023-05-19T06:59:09.403Z,102952.09
2023-05-19T07:01:35.830Z,102957.84
2023-05-19T07:04:02.389Z,102958.78
2023-05-19T07:06:29.318Z,102948.09
2023-05-19T07:08:55.851Z,102961.16
2023-05-19T07:11:22.855Z,102951.84
2023-05-19T07:13:49.260Z,102952.06
2023-05-19T07:16:15.739Z,102955.34
2023-05-19T07:18:42.284Z,102946.59
2023-05-19T07:21:08.800Z,102951.53
2023-05-19T07:23:35.197Z,102952.75
2023-05-19T07:26:01.594Z,102948.09
2023-05-19T07:28:28.049Z,102950.97
2023-05-19T07:30:54.573Z,102954.13
2023-05-19T07:33:21.133Z,102954.06
2023-05-19T07:35:47.906Z,102947.19
2023-05-19T07:38:14.510Z,102946.06
2023-05-19T07:40:40.961Z,102943.81
2023-05-19T07:43:07.421Z,102945.34
2023-05-19T07:45:34.124Z,102941.22
2023-05-19T07:48:00.927Z,102940.41
2023-05-19T07:50:27.532Z,102936.91
2023-05-19T07:52:54.020Z,102941.44
2023-05-19T07:55:23.098Z,102936.94
2023-05-19T07:57:50.790Z,102940.34
2023-05-19T08:00:17.776Z,102936.81
2023-05-19T08:02:44.711Z,102934.56
2023-05-19T08:05:11.609Z,102930.25
2023-05-19T08:07:38.130Z,102938.75
2023-05-19T08:10:05.145Z,102928.09
2023-05-19T08:12:32.335Z,102931.50
2023-05-19T08:15:01.017Z,102920.16
2023-05-19T08:17:28.026Z,102922.13
2023-05-19T08:19:54.483Z,102915.78
2023-05-19T08:22:21.137Z,102913.34
2023-05-19T08:24:49.672Z,102913.34
2023-05-19T08:27:16.629Z,102912.81
2023-05-19T08:29:43.199Z,102914.19
2023-05-19T08:32:11.630Z,102910.69
2023-05-19T08:34:39.624Z,102908.50
2023-05-19T08:37:06.910Z,102902.69
2023-05-19T08:39:34.772Z,102902.25
2023-05-19T08:42:01.596Z,102901.69
2023-05-19T08:44:28.845Z,102889.50
2023-05-19T08:46:56.257Z,102887.41
2023-05-19T08:49:28.045Z,102883.19
2023-05-19T08:52:06.361Z,102883.28
2023-05-19T08:54:54.405Z,102882.75
2023-05-19T08:57:22.431Z,102877.81
2023-05-19T08:59:50.085Z,102869.00
2023-05-19T09:02:16.685Z,102869.53
2023-05-19T09:04:45.995Z,102871.50
2023-05-19T09:07:14.104Z,102869.28
2023-05-19T09:09:43.555Z,102861.03
2023-05-19T09:12:13.584Z,102872.72
2023-05-19T09:14:40.339Z,102868.41
2023-05-19T09:17:06.907Z,102862.75
2023-05-19T09:19:33.469Z,102865.13
2023-05-19T09:22:03.929Z,102869.69
2023-05-19T09:24:30.576Z,102866.66
2023-05-19T09:26:58.453Z,102854.94
2023-05-19T09:29:26.497Z,102861.03
2023-05-19T09:32:00.880Z,102853.84
2023-05-19T09:34:27.780Z,102860.09
2023-05-19T09:36:54.368Z,102854.00
2023-05-19T09:39:22.525Z,102850.25
2023-05-19T09:41:56.099Z,102854.69
2023-05-19T09:44:23.472Z,102850.00
2023-05-19T09:46:50.810Z,102851.84
2023-05-19T09:49:25.229Z,102853.47
2023-05-19T09:51:56.566Z,102850.53
2023-05-19T09:54:23.825Z,102851.75
2023-05-19T09:57:00.892Z,102853.06
2023-05-19T09:59:32.099Z,102851.97
2023-05-19T10:02:00.350Z,102852.91
2023-05-19T10:04:28.742Z,102853.00
2023-05-19T10:06:59.360Z,102853.69
2023-05-19T10:09:27.618Z,102846.38
2023-05-19T10:11:56.156Z,102846.38
2023-05-19T10:14:24.569Z,102842.69
2023-05-19T10:16:52.444Z,102835.25
2023-05-19T10:19:26.766Z,102848.28
2023-05-19T10:21:53.745Z,102845.72
2023-05-19T10:24:21.264Z,102835.34
2023-05-19T10:26:54.538Z,102839.25
2023-05-19T10:29:23.916Z,102835.03
2023-05-19T10:31:51.388Z,102822.81
2023-05-19T10:34:22.072Z,102835.50
2023-05-19T10:36:50.739Z,102828.41
2023-05-19T10:39:22.468Z,102824.03
2023-05-19T10:42:11.315Z,102830.56
2023-05-19T10:44:57.884Z,102824.13
2023-05-19T10:47:25.383Z,102818.16
2023-05-19T10:49:55.728Z,102799.72
2023-05-19T10:52:25.648Z,102813.78
2023-05-19T10:54:54.564Z,102818.16
2023-05-19T10:57:32.358Z,102811.53
2023-05-19T11:00:00.901Z,102813.56
2023-05-19T11:02:40.993Z,102807.31
2023-05-19T11:05:18.520Z,102811.00
2023-05-19T11:07:56.091Z,102805.56
2023-05-19T11:10:23.501Z,102800.00
2023-05-19T11:12:50.088Z,102801.94
2023-05-19T11:15:16.959Z,102801.75
2023-05-19T11:17:48.399Z,102803.97
2023-05-19T11:20:24.729Z,102799.38
2023-05-19T11:23:07.053Z,102805.84
2023-05-19T11:25:54.293Z,102803.00
2023-05-19T11:28:25.737Z,102810.97
2023-05-19T11:30:54.658Z,102799.63
2023-05-19T11:33:21.530Z,102796.44
2023-05-19T11:35:50.545Z,102795.72
2023-05-19T11:38:18.200Z,102801.09
2023-05-19T11:40:44.786Z,102793.16
2023-05-19T11:43:11.300Z,102795.59
2023-05-19T11:45:38.048Z,102798.81
2023-05-19T11:48:05.392Z,102799.03
2023-05-19T11:50:32.440Z,102793.03
2023-05-19T11:53:00.362Z,102795.09
2023-05-19T11:55:27.440Z,102798.34
2023-05-19T11:58:04.475Z,102789.16
2023-05-19T12:00:39.035Z,102781.28
2023-05-19T12:03:05.982Z,102778.25
2023-05-19T12:05:35.408Z,102786.16
2023-05-19T12:08:06.150Z,102787.72
2023-05-19T12:10:34.208Z,102783.78
2023-05-19T12:13:02.054Z,102795.25
2023-05-19T12:15:28.532Z,102794.81
2023-05-19T12:17:59.590Z,102791.16
2023-05-19T12:20:27.528Z,102785.22
2023-05-19T12:22:57.327Z,102770.63
2023-05-19T12:25:24.297Z,102776.13
2023-05-19T12:27:52.770Z,102770.44
2023-05-19T12:30:26.237Z,102763.00
2023-05-19T12:32:53.850Z,102769.09
2023-05-19T12:35:20.478Z,102770.34
2023-05-19T12:37:49.120Z,102769.72
2023-05-19T12:40:16.776Z,102769.66
2023-05-19T12:42:46.665Z,102760.72
2023-05-19T12:45:13.091Z,102755.22
2023-05-19T12:47:39.606Z,102756.38
2023-05-19T12:50:10.829Z,102759.81
2023-05-19T12:52:48.224Z,102754.28
2023-05-19T12:55:16.405Z,102751.44
2023-05-19T12:57:50.490Z,102753.72
2023-05-19T13:00:20.894Z,102752.06
2023-05-19T13:03:05.295Z,102752.53
2023-05-19T13:05:33.755Z,102769.41
2023-05-19T13:08:02.627Z,102758.22
2023-05-19T13:10:29.873Z,102756.44
2023-05-19T13:12:57.488Z,102759.78
2023-05-19T13:15:26.095Z,102746.63
2023-05-19T13:17:53.201Z,102750.31
2023-05-19T13:20:20.747Z,102740.78
2023-05-19T13:22:50.484Z,102749.28
2023-05-19T13:25:17.092Z,102742.81
2023-05-19T13:27:47.654Z,102746.66
2023-05-19T13:30:15.732Z,102742.03
2023-05-19T13:32:42.410Z,102741.59
2023-05-19T13:35:10.350Z,102739.66
2023-05-19T13:37:36.839Z,102736.34
2023-05-19T13:40:03.660Z,102733.22
2023-05-19T13:42:30.119Z,102732.94
2023-05-19T13:44:56.694Z,102734.75
2023-05-19T13:47:23.575Z,102729.50
2023-05-19T13:49:50.682Z,102724.13
2023-05-19T13:52:17.476Z,102726.63
2023-05-19T13:54:44.156Z,102717.78
2023-05-19T13:57:10.592Z,102717.16
2023-05-19T13:59:43.101Z,102714.84
2023-05-19T14:02:19.706Z,102713.72
2023-05-19T14:04:47.172Z,102724.81
2023-05-19T14:07:13.596Z,102709.28
2023-05-19T14:09:40.061Z,102704.88
2023-05-19T14:12:07.185Z,102702.81
2023-05-19T14:14:33.595Z,102700.75
2023-05-19T14:17:00.140Z,102702.63
2023-05-19T14:19:30.158Z,102710.38
2023-05-19T14:21:57.343Z,102698.19
2023-05-19T14:24:23.885Z,102693.19
2023-05-19T14:26:50.748Z,102705.03
2023-05-19T14:29:17.149Z,102692.84
2023-05-19T14:31:43.683Z,102699.50
2023-05-19T14:34:10.294Z,102696.47
2023-05-19T14:36:36.808Z,102688.41
2023-05-19T14:39:03.332Z,102687.13
2023-05-19T14:41:29.763Z,102683.81
2023-05-19T14:43:56.541Z,102681.13
2023-05-19T14:46:23.012Z,102686.19
2023-05-19T14:48:49.554Z,102687.00
2023-05-19T14:51:16.052Z,102683.97
2023-05-19T14:53:42.511Z,102680.81
2023-05-19T14:56:08.961Z,102680.81
2023-05-19T14:58:35.550Z,102682.06
2023-05-19T15:01:02.041Z,102671.13
2023-05-19T15:03:28.585Z,102683.81
2023-05-19T15:05:55.093Z,102665.63
2023-05-19T15:08:21.557Z,102669.41
2023-05-19T15:10:49.095Z,102670.50
2023-05-19T15:13:16.098Z,102674.59
2023-05-19T15:15:42.601Z,102671.91
2023-05-19T15:18:09.067Z,102681.66
2023-05-19T15:20:35.738Z,102669.66
2023-05-19T15:23:02.319Z,102665.44
2023-05-19T15:25:28.805Z,102667.00
2023-05-19T15:27:55.386Z,102656.25
2023-05-19T15:30:22.266Z,102654.84
2023-05-19T15:32:48.787Z,102663.53
2023-05-19T15:35:15.800Z,102660.84
2023-05-19T15:37:42.241Z,102663.25
2023-05-19T15:40:09.266Z,102665.81
2023-05-19T15:42:35.673Z,102670.06
2023-05-19T15:45:02.101Z,102653.31
2023-05-19T15:47:28.559Z,102657.22
2023-05-19T15:49:55.000Z,102653.91
2023-05-19T15:52:21.452Z,102656.25
2023-05-19T15:54:48.679Z,102653.09
2023-05-19T15:57:15.119Z,102639.19
2023-05-19T15:59:41.541Z,102652.25
2023-05-19T16:02:08.466Z,102657.31
2023-05-19T16:04:34.927Z,102647.56
2023-05-19T16:07:01.353Z,102638.53
2023-05-19T16:09:27.789Z,102641.69
2023-05-19T16:11:54.271Z,102641.50
2023-05-19T16:14:20.740Z,102638.84
2023-05-19T16:16:47.544Z,102634.94
2023-05-19T16:19:14.123Z,102630.00
2023-05-19T16:21:41.211Z,102630.88
2023-05-19T16:24:07.645Z,102628.91
2023-05-19T16:26:34.500Z,102632.38
2023-05-19T16:29:00.972Z,102634.31
2023-05-19T16:31:27.571Z,102628.75
2023-05-19T16:33:54.195Z,102614.53
2023-05-19T16:36:22.711Z,102622.94
2023-05-19T16:38:49.296Z,102624.03
2023-05-19T16:41:15.895Z,102617.84
2023-05-19T16:43:42.388Z,102620.72
2023-05-19T16:46:09.833Z,102625.78
2023-05-19T16:48:36.420Z,102619.41
2023-05-19T16:51:02.913Z,102626.16
2023-05-19T16:53:31.743Z,102625.66
2023-05-19T16:55:59.317Z,102627.47
2023-05-19T16:58:26.830Z,102618.34
2023-05-19T17:00:54.555Z,102626.69
2023-05-19T17:03:21.292Z,102621.78
2023-05-19T17:05:48.218Z,102632.34
2023-05-19T17:08:14.749Z,102629.16
2023-05-19T17:10:41.261Z,102627.47
2023-05-19T17:13:07.797Z,102631.44
2023-05-19T17:15:34.834Z,102631.44
2023-05-19T17:18:01.314Z,102627.78
2023-05-19T17:20:27.838Z,102624.63
2023-05-19T17:22:54.335Z,102623.94
2023-05-19T17:25:20.806Z,102624.84
2023-05-19T17:27:47.925Z,102617.59
2023-05-19T17:30:14.380Z,102613.13
2023-05-19T17:32:40.927Z,102622.84
2023-05-19T17:35:07.822Z,102621.66
2023-05-19T17:37:34.253Z,102618.88
2023-05-19T17:40:00.942Z,102616.50
2023-05-19T17:42:28.988Z,102612.44
2023-05-19T17:44:55.444Z,102620.34
2023-05-19T17:47:21.903Z,102620.75
2023-05-19T17:49:48.329Z,102627.97
2023-05-19T17:52:15.819Z,102640.84
2023-05-19T17:54:42.437Z,102630.19
2023-05-19T17:57:12.592Z,102632.47
2023-05-19T17:59:39.250Z,102634.53
2023-05-19T18:02:07.334Z,102635.72
2023-05-19T18:04:34.224Z,102629.16
2023-05-19T18:07:01.953Z,102630.78
2023-05-19T18:09:29.309Z,102637.28
2023-05-19T18:11:56.588Z,102643.75
2023-05-19T18:14:23.026Z,102641.22
2023-05-19T18:16:50.005Z,102646.25
2023-05-19T18:19:16.596Z,102643.88
2023-05-19T18:21:43.115Z,102634.91
2023-05-19T18:24:09.522Z,102643.81
2023-05-19T18:26:41.518Z,102642.53
2023-05-19T18:29:11.389Z,102654.06
2023-05-19T18:31:38.053Z,102656.81
2023-05-19T18:34:04.572Z,102655.06
2023-05-19T18:36:31.474Z,102657.28
2023-05-19T18:38:59.165Z,102649.91
2023-05-19T18:41:25.868Z,102649.81
2023-05-19T18:43:52.328Z,102655.50
2023-05-19T18:46:18.895Z,102663.09
2023-05-19T18:48:45.407Z,102664.28
2023-05-19T18:51:14.220Z,102668.38
2023-05-19T18:53:40.754Z,102670.88
2023-05-19T18:56:07.486Z,102670.38
2023-05-19T18:58:33.977Z,102672.38
2023-05-19T19:01:00.489Z,102676.38
2023-05-19T19:03:28.556Z,102667.84
2023-05-19T19:05:56.058Z,102677.25
2023-05-19T19:08:22.566Z,102669.53
2023-05-19T19:10:51.391Z,102685.19
2023-05-19T19:13:18.243Z,102688.16
2023-05-19T19:15:45.032Z,102691.91
2023-05-19T19:18:11.875Z,102686.38
2023-05-19T19:20:38.393Z,102688.31
2023-05-19T19:23:06.595Z,102700.88
2023-05-19T19:25:33.501Z,102704.06
2023-05-19T19:27:59.933Z,102701.47
2023-05-19T19:30:26.954Z,102710.56
2023-05-19T19:32:54.773Z,102701.81
2023-05-19T19:35:21.308Z,102703.94
2023-05-19T19:37:47.793Z,102706.63
2023-05-19T19:40:14.209Z,102711.69
2023-05-19T19:42:40.688Z,102709.91
2023-05-19T19:45:07.791Z,102721.09
2023-05-19T19:47:34.384Z,102718.69
2023-05-19T19:50:02.635Z,102730.13
2023-05-19T19:52:29.133Z,102729.09
2023-05-19T19:54:55.825Z,102720.03
2023-05-19T19:57:22.307Z,102731.25
2023-05-19T19:59:54.987Z,102729.94
2023-05-19T20:02:21.691Z,102731.78
2023-05-19T20:04:48.391Z,102726.22
2023-05-19T20:07:15.080Z,102731.56
2023-05-19T20:09:41.834Z,102735.53
2023-05-19T20:12:08.235Z,102732.09
2023-05-19T20:14:34.893Z,102735.81
2023-05-19T20:17:01.385Z,102736.66
2023-05-19T20:19:27.953Z,102742.50
2023-05-19T20:21:54.475Z,102740.91
2023-05-19T20:24:21.078Z,102746.47
2023-05-19T20:26:47.536Z,102756.03
2023-05-19T20:29:14.041Z,102757.63
2023-05-19T20:31:41.077Z,102761.63
2023-05-19T20:34:07.591Z,102754.69
2023-05-19T20:36:34.052Z,102751.50
2023-05-19T20:39:00.530Z,102757.88
2023-05-19T20:41:27.385Z,102760.53
2023-05-19T20:43:54.923Z,102763.47
2023-05-19T20:46:21.478Z,102763.19
2023-05-19T20:48:48.058Z,102763.75
2023-05-19T20:51:14.515Z,102767.69
2023-05-19T20:53:41.136Z,102769.56
2023-05-19T20:56:10.353Z,102773.78
2023-05-19T20:58:37.505Z,102767.44
2023-05-19T21:01:04.028Z,102768.47
2023-05-19T21:03:31.973Z,102769.28
2023-05-19T21:05:58.468Z,102757.81
2023-05-19T21:08:25.454Z,102769.25
2023-05-19T21:10:52.021Z,102772.91
2023-05-19T21:13:18.662Z,102782.16
2023-05-19T21:15:45.130Z,102776.84
2023-05-19T21:18:12.359Z,102778.44
2023-05-19T21:20:39.183Z,102785.88
2023-05-19T21:23:05.751Z,102780.56
2023-05-19T21:25:32.231Z,102792.47
2023-05-19T21:27:58.814Z,102781.06
2023-05-19T21:30:25.264Z,102783.44
2023-05-19T21:32:51.706Z,102779.69
2023-05-19T21:35:18.161Z,102785.31
2023-05-19T21:37:44.587Z,102788.44
2023-05-19T21:40:11.624Z,102787.81
2023-05-19T21:42:38.038Z,102795.25
2023-05-19T21:45:04.904Z,102795.25
2023-05-19T21:47:31.373Z,102796.84
2023-05-19T21:49:57.824Z,102811.41
2023-05-19T21:52:24.324Z,102802.91
2023-05-19T21:54:51.963Z,102809.25
2023-05-19T21:57:18.448Z,102809.72
2023-05-19T21:59:45.067Z,102815.25
2023-05-19T22:02:11.613Z,102810.19
2023-05-19T22:04:38.553Z,102806.19
2023-05-19T22:07:06.735Z,102805.06
2023-05-19T22:09:33.183Z,102808.72
2023-05-19T22:11:59.606Z,102808.69
2023-05-19T22:14:26.455Z,102805.72
2023-05-19T22:16:53.120Z,102808.09
2023-05-19T22:19:19.986Z,102806.47
2023-05-19T22:21:46.505Z,102806.75
2023-05-19T22:24:13.024Z,102808.84
2023-05-19T22:26:42.635Z,102806.97
2023-05-19T22:29:12.116Z,102804.31
2023-05-19T22:31:38.611Z,102806.69
2023-05-19T22:34:05.136Z,102810.06
2023-05-19T22:36:31.582Z,102803.91
2023-05-19T22:38:57.991Z,102806.00
2023-05-19T22:41:24.427Z,102802.28
2023-05-19T22:43:50.844Z,102805.16
2023-05-19T22:46:17.394Z,102804.63
2023-05-19T22:48:43.863Z,102802.75
2023-05-19T22:51:10.404Z,102806.72
2023-05-19T22:53:36.836Z,102811.47
2023-05-19T22:56:03.302Z,102794.31
2023-05-19T22:58:29.765Z,102802.28
2023-05-19T23:00:56.489Z,102802.06
2023-05-19T23:03:23.147Z,102798.50
2023-05-19T23:05:49.598Z,102800.63
2023-05-19T23:08:16.057Z,102806.16
2023-05-19T23:10:42.500Z,102802.72
2023-05-19T23:13:10.157Z,102797.53
2023-05-19T23:15:36.647Z,102803.97
2023-05-19T23:18:07.263Z,102808.88
2023-05-19T23:20:34.378Z,102804.09
2023-05-19T23:23:01.437Z,102813.56
2023-05-19T23:25:27.907Z,102797.13
2023-05-19T23:27:54.416Z,102811.94
2023-05-19T23:30:20.816Z,102809.75
2023-05-19T23:32:47.313Z,102807.91
2023-05-19T23:35:16.175Z,102807.84
2023-05-19T23:37:42.851Z,102806.50
2023-05-19T23:40:09.881Z,102803.84
2023-05-19T23:42:36.497Z,102808.31
2023-05-19T23:45:03.360Z,102796.94
2023-05-19T23:47:29.879Z,102799.84
2023-05-19T23:49:56.405Z,102789.97
2023-05-19T23:52:22.885Z,102797.38
2023-05-19T23:54:49.407Z,102794.41
2023-05-19T23:57:16.026Z,102789.34
2023-05-19T23:59:43.053Z,102786.88
